createdAt,value
2023-03-18T00:47:21.386Z,1.30
2023-03-18T00:50:08.446Z,1.50
2023-03-18T00:52:54.757Z,1.08
2023-03-18T00:55:42.081Z,1.30
2023-03-18T00:58:27.246Z,1.30
2023-03-18T01:47:10.543Z,1.20
2023-03-18T01:49:59.884Z,1.00
2023-03-18T01:52:47.186Z,1.10
2023-03-18T01:55:33.335Z,1.08
2023-03-18T01:58:34.165Z,1.30
2023-03-18T02:47:10.676Z,0.90
2023-03-18T02:49:57.412Z,1.15
2023-03-18T02:52:42.922Z,1.15
2023-03-18T02:55:28.532Z,1.10
2023-03-18T02:58:13.781Z,1.02
2023-03-18T03:47:04.218Z,1.20
2023-03-18T03:49:50.843Z,1.13
2023-03-18T03:52:37.321Z,0.85
2023-03-18T03:55:23.143Z,1.10
2023-03-18T03:58:09.514Z,1.10
2023-03-18T04:46:46.301Z,0.90
2023-03-18T04:49:31.881Z,1.00
2023-03-18T04:52:20.900Z,1.00
2023-03-18T04:55:08.303Z,0.80
2023-03-18T04:57:56.543Z,1.05
2023-03-18T05:46:24.056Z,0.87
2023-03-18T05:49:24.623Z,0.98
2023-03-18T05:52:31.050Z,0.73
2023-03-18T05:55:21.540Z,1.08
2023-03-18T05:58:12.859Z,0.75
2023-03-18T06:01:03.240Z,0.90
2023-03-18T06:03:56.419Z,0.80
2023-03-18T06:06:46.534Z,0.70
2023-03-18T06:09:35.403Z,0.80
2023-03-18T06:12:28.826Z,0.90
2023-03-18T06:15:17.738Z,0.70
2023-03-18T06:18:11.347Z,0.63
2023-03-18T06:21:01.054Z,1.00
2023-03-18T06:23:50.771Z,0.90
2023-03-18T06:26:39.817Z,0.98
2023-03-18T06:29:31.190Z,0.80
2023-03-18T06:32:24.708Z,0.88
2023-03-18T06:35:11.083Z,1.00
2023-03-18T06:37:57.728Z,0.80
2023-03-18T06:40:44.404Z,0.77
2023-03-18T06:43:31.220Z,0.90
2023-03-18T06:46:18.070Z,0.90
2023-03-18T06:49:04.217Z,1.00
2023-03-18T06:51:54.473Z,0.98
2023-03-18T06:54:41.027Z,1.00
2023-03-18T06:57:27.666Z,0.93
2023-03-18T07:00:16.270Z,1.00
2023-03-18T07:03:02.543Z,0.88
2023-03-18T07:05:48.921Z,0.90
2023-03-18T07:08:34.425Z,0.85
2023-03-18T07:11:20.486Z,1.10
2023-03-18T07:14:08.022Z,0.90
2023-03-18T07:16:56.015Z,0.80
2023-03-18T07:19:41.978Z,0.85
2023-03-18T07:22:27.832Z,1.00
2023-03-18T07:25:13.779Z,1.00
2023-03-18T07:28:04.238Z,0.90
2023-03-18T07:30:53.664Z,0.80
2023-03-18T07:33:39.980Z,0.85
2023-03-18T07:36:26.740Z,0.90
2023-03-18T07:39:12.361Z,1.00
2023-03-18T07:41:57.846Z,0.90
2023-03-18T07:44:48.201Z,1.00
2023-03-18T07:47:34.129Z,0.82
2023-03-18T07:50:20.010Z,1.00
2023-03-18T07:53:05.632Z,0.90
2023-03-18T07:55:50.863Z,0.98
2023-03-18T07:58:37.322Z,1.15
2023-03-18T08:01:23.224Z,1.00
2023-03-18T08:04:10.450Z,1.00
2023-03-18T08:06:55.959Z,0.90
2023-03-18T08:09:41.287Z,1.00
2023-03-18T08:12:35.545Z,0.80
2023-03-18T08:15:31.696Z,0.80
2023-03-18T08:18:17.679Z,0.80
2023-03-18T08:21:03.393Z,0.80
2023-03-18T08:23:49.040Z,1.00
2023-03-18T08:26:34.487Z,1.05
2023-03-18T08:29:20.174Z,1.00
2023-03-18T08:32:06.079Z,0.98
2023-03-18T08:34:51.445Z,0.90
2023-03-18T08:37:36.740Z,0.90
2023-03-18T08:40:22.163Z,0.85
2023-03-18T08:43:07.637Z,0.90
2023-03-18T08:45:53.915Z,0.80
2023-03-18T08:48:41.765Z,0.70
2023-03-18T08:51:27.483Z,0.80
2023-03-18T08:54:13.424Z,0.95
2023-03-18T08:57:00.635Z,0.98
2023-03-18T08:59:45.916Z,0.80
2023-03-18T09:02:31.710Z,0.90
2023-03-18T09:05:17.984Z,0.80
2023-03-18T09:08:03.969Z,0.70
2023-03-18T09:10:53.976Z,0.70
2023-03-18T09:13:39.417Z,0.90
2023-03-18T09:16:24.913Z,0.90
2023-03-18T09:19:10.373Z,0.80
2023-03-18T09:21:59.191Z,0.90
2023-03-18T09:24:44.795Z,0.88
2023-03-18T09:27:30.922Z,1.00
2023-03-18T09:30:16.862Z,0.90
2023-03-18T09:33:02.562Z,0.95
2023-03-18T09:35:48.619Z,1.00
2023-03-18T09:38:38.176Z,0.98
2023-03-18T09:41:43.253Z,1.00
2023-03-18T09:44:34.322Z,0.90
2023-03-18T09:47:44.097Z,0.90
2023-03-18T09:50:39.727Z,0.77
2023-03-18T09:53:39.107Z,1.20
2023-03-18T09:56:32.424Z,0.90
2023-03-18T09:59:40.383Z,1.00
2023-03-18T10:02:55.426Z,0.90
2023-03-18T10:05:50.470Z,0.90
2023-03-18T10:08:49.737Z,1.15
2023-03-18T10:11:48.187Z,0.90
2023-03-18T10:14:36.461Z,0.83
2023-03-18T10:17:41.499Z,0.90
2023-03-18T10:20:38.037Z,0.90
2023-03-18T10:23:54.432Z,0.90
2023-03-18T10:26:48.869Z,1.10
2023-03-18T10:29:46.554Z,1.00
2023-03-18T10:32:49.954Z,0.95
2023-03-18T10:35:54.066Z,0.80
2023-03-18T10:38:44.908Z,0.80
2023-03-18T10:41:33.546Z,0.90
2023-03-18T10:44:37.725Z,0.90
2023-03-18T10:47:29.104Z,0.90
2023-03-18T10:50:23.415Z,0.93
2023-03-18T10:53:19.981Z,1.00
2023-03-18T10:56:10.952Z,1.02
2023-03-18T10:58:57.488Z,0.80
2023-03-18T11:01:49.874Z,0.90
2023-03-18T11:04:47.687Z,0.73
2023-03-18T11:07:33.638Z,0.90
2023-03-18T11:10:28.783Z,0.90
2023-03-18T11:13:18.575Z,1.00
2023-03-18T11:16:04.527Z,0.90
2023-03-18T11:18:52.655Z,1.00
2023-03-18T11:21:38.353Z,0.82
2023-03-18T11:24:39.381Z,0.80
2023-03-18T11:27:27.940Z,1.00
2023-03-18T11:30:38.327Z,0.90
2023-03-18T11:33:27.013Z,0.90
2023-03-18T11:36:21.383Z,0.77
2023-03-18T11:39:07.193Z,0.80
2023-03-18T11:41:53.973Z,0.73
2023-03-18T11:44:40.152Z,1.00
2023-03-18T11:47:30.437Z,0.80
2023-03-18T11:50:21.021Z,0.75
2023-03-18T11:53:41.483Z,0.90
2023-03-18T11:56:44.448Z,0.90
2023-03-18T11:59:53.184Z,0.90
2023-03-18T12:03:00.278Z,0.90
2023-03-18T12:06:22.673Z,0.80
2023-03-18T12:09:30.506Z,0.80
2023-03-18T12:12:38.403Z,0.90
2023-03-18T12:15:30.254Z,0.73
2023-03-18T12:18:32.032Z,0.80
2023-03-18T12:21:30.678Z,1.00
2023-03-18T12:24:44.078Z,0.80
2023-03-18T12:27:38.779Z,0.77
2023-03-18T12:30:36.863Z,0.80
2023-03-18T12:33:38.273Z,0.88
2023-03-18T12:36:30.162Z,0.90
2023-03-18T12:39:15.966Z,1.00
2023-03-18T12:42:17.593Z,0.80
2023-03-18T12:45:10.630Z,0.80
2023-03-18T12:48:15.704Z,0.73
2023-03-18T12:51:11.280Z,1.08
2023-03-18T12:54:07.627Z,0.82
2023-03-18T12:57:02.015Z,0.80
2023-03-18T12:59:57.930Z,0.67
2023-03-18T13:02:55.586Z,0.65
2023-03-18T13:05:48.673Z,0.80
2023-03-18T13:08:46.664Z,0.80
2023-03-18T13:12:04.777Z,0.70
2023-03-18T13:15:08.487Z,0.77
2023-03-18T13:18:01.265Z,0.70
2023-03-18T13:20:47.952Z,0.80
2023-03-18T13:23:46.169Z,0.60
2023-03-18T13:26:44.146Z,0.77
2023-03-18T13:29:47.002Z,0.87
2023-03-18T13:32:49.804Z,0.80
2023-03-18T13:35:55.556Z,1.02
2023-03-18T13:38:53.978Z,0.75
2023-03-18T13:42:04.389Z,0.82
2023-03-18T13:45:13.162Z,0.80
2023-03-18T13:48:02.824Z,0.80
2023-03-18T13:50:51.284Z,0.90
2023-03-18T13:53:42.529Z,0.80
2023-03-18T13:56:34.109Z,0.98
2023-03-18T13:59:34.859Z,0.87
2023-03-18T14:02:29.453Z,0.90
2023-03-18T14:05:40.470Z,0.90
2023-03-18T14:08:40.142Z,0.85
2023-03-18T14:11:27.006Z,0.70
2023-03-18T14:14:41.996Z,0.60
2023-03-18T14:17:38.260Z,0.63
2023-03-18T14:20:27.744Z,0.70
2023-03-18T14:23:39.237Z,0.80
2023-03-18T14:26:28.853Z,0.77
2023-03-18T14:29:13.906Z,1.10
2023-03-18T14:32:01.063Z,0.70
2023-03-18T14:35:03.635Z,0.93
2023-03-18T14:38:09.969Z,1.17
2023-03-18T14:40:57.844Z,1.00
2023-03-18T14:43:52.017Z,1.10
2023-03-18T14:46:44.369Z,1.00
2023-03-18T14:49:41.717Z,0.80
2023-03-18T14:52:35.564Z,1.00
2023-03-18T14:55:25.745Z,0.90
2023-03-18T14:58:23.144Z,0.87
2023-03-18T15:01:12.289Z,0.70
2023-03-18T15:03:58.694Z,0.80
2023-03-18T15:06:45.540Z,1.00
2023-03-18T15:09:48.757Z,0.90
2023-03-18T15:12:34.453Z,0.90
2023-03-18T15:15:22.341Z,0.75
2023-03-18T15:18:29.600Z,0.70
2023-03-18T15:21:26.060Z,0.90
2023-03-18T15:24:19.703Z,1.10
2023-03-18T15:27:20.141Z,0.80
2023-03-18T15:30:23.078Z,1.02
2023-03-18T15:33:27.246Z,1.35
2023-03-18T15:36:16.823Z,0.90
2023-03-18T15:39:02.572Z,1.35
2023-03-18T15:41:59.287Z,1.00
2023-03-18T15:44:46.662Z,1.10
2023-03-18T15:47:33.467Z,1.17
2023-03-18T15:50:19.487Z,1.13
2023-03-18T15:53:25.207Z,1.15
2023-03-18T15:56:19.893Z,0.93
2023-03-18T15:59:17.631Z,1.00
2023-03-18T16:02:05.976Z,1.20
2023-03-18T16:05:08.036Z,1.02
2023-03-18T16:07:55.466Z,0.90
2023-03-18T16:10:41.674Z,1.20
2023-03-18T16:13:29.798Z,1.13
2023-03-18T16:16:24.895Z,1.00
2023-03-18T16:19:28.188Z,0.93
2023-03-18T16:22:15.465Z,1.20
2023-03-18T16:25:02.414Z,0.87
2023-03-18T16:27:50.374Z,1.10
2023-03-18T16:30:40.079Z,0.98
2023-03-18T16:33:27.962Z,0.93
2023-03-18T16:36:26.796Z,1.05
2023-03-18T16:39:24.873Z,0.87
2023-03-18T16:42:10.750Z,0.70
2023-03-18T16:44:56.805Z,0.98
2023-03-18T16:47:44.794Z,1.27
2023-03-18T16:50:35.870Z,1.00
2023-03-18T16:53:30.835Z,0.70
2023-03-18T16:56:23.990Z,0.80
2023-03-18T16:59:19.374Z,0.80
2023-03-18T17:02:05.524Z,0.80
2023-03-18T17:04:50.718Z,0.90
2023-03-18T17:07:37.037Z,0.80
2023-03-18T17:10:24.941Z,0.90
2023-03-18T17:13:17.001Z,0.77
2023-03-18T17:16:02.922Z,0.80
2023-03-18T17:18:48.257Z,0.75
2023-03-18T17:21:34.610Z,0.80
2023-03-18T17:24:21.214Z,0.90
2023-03-18T17:27:07.458Z,1.05
2023-03-18T17:29:54.218Z,0.73
2023-03-18T17:32:39.813Z,0.82
2023-03-18T17:35:25.679Z,0.90
2023-03-18T17:38:15.588Z,0.80
2023-03-18T17:41:05.623Z,0.80
2023-03-18T17:43:51.156Z,0.80
2023-03-18T17:46:38.058Z,0.90
2023-03-18T17:49:26.461Z,1.00
2023-03-18T17:52:17.823Z,0.80
2023-03-18T17:55:14.160Z,0.80
2023-03-18T17:57:59.860Z,0.88
2023-03-18T18:00:47.062Z,1.20
2023-03-18T18:03:34.934Z,0.73
2023-03-18T18:06:22.810Z,0.80
2023-03-18T18:09:12.732Z,1.00
2023-03-18T18:11:57.923Z,0.88
2023-03-18T18:14:50.248Z,0.98
2023-03-18T18:17:36.169Z,0.97
2023-03-18T18:20:23.469Z,0.65
2023-03-18T18:23:22.754Z,0.90
2023-03-18T18:26:12.294Z,0.90
2023-03-18T18:28:58.138Z,0.90
2023-03-18T18:31:43.600Z,1.13
2023-03-18T18:34:28.882Z,1.27
2023-03-18T18:37:14.039Z,0.88
2023-03-18T18:39:59.361Z,0.95
2023-03-18T18:42:44.832Z,0.93
2023-03-18T18:45:30.428Z,0.90
2023-03-18T18:48:18.037Z,0.90
2023-03-18T18:51:04.370Z,1.20
2023-03-18T18:53:52.480Z,1.10
2023-03-18T18:56:38.461Z,1.30
2023-03-18T18:59:32.333Z,0.90
2023-03-18T19:02:29.774Z,0.90
2023-03-18T19:05:16.605Z,0.98
2023-03-18T19:08:04.455Z,1.00
2023-03-18T19:10:49.932Z,1.10
2023-03-18T19:13:37.519Z,1.00
2023-03-18T19:16:32.745Z,1.08
2023-03-18T19:19:22.311Z,1.10
2023-03-18T19:22:13.030Z,1.10
2023-03-18T19:24:58.710Z,1.17
2023-03-18T19:27:43.667Z,1.10
2023-03-18T19:30:31.013Z,1.00
2023-03-18T19:33:17.672Z,1.10
2023-03-18T19:36:14.674Z,1.10
2023-03-18T19:39:02.292Z,1.23
2023-03-18T19:41:48.462Z,1.10
2023-03-18T19:44:39.688Z,1.00
2023-03-18T19:47:28.602Z,1.20
2023-03-18T19:50:18.790Z,0.95
2023-03-18T19:53:11.585Z,1.40
2023-03-18T19:55:57.220Z,1.20
2023-03-18T19:58:42.428Z,1.20
2023-03-18T20:01:29.454Z,1.25
2023-03-18T20:04:17.076Z,1.30
2023-03-18T20:07:03.853Z,1.30
2023-03-18T20:09:50.005Z,1.33
2023-03-18T20:12:40.471Z,1.00
2023-03-18T20:15:29.738Z,1.10
2023-03-18T20:18:17.222Z,1.13
2023-03-18T20:21:03.354Z,1.30
2023-03-18T20:23:50.933Z,1.10
2023-03-18T20:26:36.926Z,1.33
2023-03-18T20:29:25.150Z,1.38
2023-03-18T20:32:11.060Z,1.25
2023-03-18T20:34:56.876Z,1.30
2023-03-18T20:37:46.574Z,1.30
2023-03-18T20:40:32.907Z,1.30
2023-03-18T20:43:20.701Z,1.35
2023-03-18T20:46:11.657Z,1.10
2023-03-18T20:48:57.981Z,1.55
2023-03-18T20:51:46.351Z,1.20
2023-03-18T20:54:32.519Z,1.10
2023-03-18T20:57:19.054Z,1.20
2023-03-18T21:00:07.329Z,1.38
2023-03-18T21:02:56.782Z,1.30
2023-03-18T21:05:43.071Z,1.40
2023-03-18T21:08:30.356Z,1.13
2023-03-18T21:11:29.750Z,1.40
2023-03-18T21:14:16.285Z,1.35
2023-03-18T21:17:02.221Z,1.42
2023-03-18T21:19:48.652Z,1.67
2023-03-18T21:22:37.970Z,1.35
2023-03-18T21:25:26.797Z,1.48
2023-03-18T21:28:18.783Z,1.40
2023-03-18T21:31:14.282Z,1.58
2023-03-18T21:34:01.250Z,1.60
2023-03-18T21:36:47.470Z,1.50
2023-03-18T21:39:33.658Z,1.60
2023-03-18T21:42:27.253Z,1.70
2023-03-18T21:45:16.062Z,1.50
2023-03-18T21:48:01.836Z,1.30
2023-03-18T21:50:48.333Z,1.40
2023-03-18T21:53:33.618Z,1.60
2023-03-18T21:56:19.369Z,1.33
2023-03-18T21:59:04.837Z,1.60
2023-03-18T22:01:50.196Z,1.40
2023-03-18T22:04:35.702Z,1.20
2023-03-18T22:07:23.102Z,1.63
2023-03-18T22:10:11.187Z,1.40
2023-03-18T22:12:56.568Z,1.65
2023-03-18T22:15:41.846Z,1.50
2023-03-18T22:18:27.298Z,1.40
2023-03-18T22:21:21.843Z,1.60
2023-03-18T22:24:13.724Z,1.50
2023-03-18T22:27:03.181Z,1.70
2023-03-18T22:29:49.734Z,1.93
2023-03-18T22:32:54.069Z,1.30
2023-03-18T22:35:39.536Z,1.60
2023-03-18T22:38:25.851Z,1.55
2023-03-18T22:41:36.154Z,1.38
2023-03-18T22:44:31.120Z,1.50
2023-03-18T22:47:25.028Z,1.35
2023-03-18T22:50:11.311Z,1.60
2023-03-18T22:53:07.428Z,1.27
2023-03-18T22:55:56.732Z,1.50
2023-03-18T22:58:42.096Z,1.67
2023-03-18T23:01:30.853Z,1.40
2023-03-18T23:04:19.587Z,1.60
2023-03-18T23:07:06.039Z,1.60
2023-03-18T23:09:56.946Z,1.75
2023-03-18T23:12:43.767Z,1.33
2023-03-18T23:15:29.182Z,1.80
2023-03-18T23:18:17.006Z,1.77
2023-03-18T23:21:02.978Z,1.50
2023-03-18T23:23:48.971Z,1.40
2023-03-18T23:26:34.485Z,1.57
2023-03-18T23:29:19.710Z,1.58
2023-03-18T23:32:05.871Z,1.50
2023-03-18T23:34:56.629Z,1.50
2023-03-18T23:37:42.204Z,1.50
2023-03-18T23:40:30.785Z,1.50
2023-03-18T23:43:16.636Z,1.70
2023-03-18T23:46:02.309Z,1.63
2023-03-18T23:48:48.172Z,1.80
2023-03-18T23:51:33.462Z,1.70
2023-03-18T23:54:18.870Z,1.57
2023-03-18T23:57:04.394Z,1.40
2023-03-18T23:59:49.726Z,1.40
